Portada
METAR-TAF:

METAR-TAF

Aeroports :

Afonsos

Rio de Janeiro, Rio de Janeiro, Brasil

latitud: 22-52S, longitud: 043-22W, altitud: 34 m

Observació

L'informe es va fer fa 1 hora i 17 minuts, a les 16:00 UTC
Vent 12 kt del Sud-Oest
Temperatura 32°C
Humitat 52%
Pressió 1010 hPa
Visibilitat 10 km o més
sense núvols per sota de 1500 mi sense presència de cumulonimbus.

METAR: SBAF 281600Z 23012KT CAVOK 32/21 Q1010

Hora: 14:17 (17:17 UTC)

Pronòstic

L'informe es va fer fa 8 hores i 17 minuts, a les 09:00 UTC
Pronòstic vàlid del 28 a les 12 UTC al 28 a les 24 UTC
Vent 8 kt del Nord
Visibilitat 10 km o més
sense núvols per sota de 1500 mi sense presència de cumulonimbus.
Evolucionant progressivament
l' 28 a les 15 UTC al 28 a les 17 UTC
Vent 5 kt del Sud

TAF: SBAF 280900Z 2812/2824 35008KT CAVOK TX39/2817Z TN35/2823Z BECMG 2815/2817 17005KT RMK PEG

Observacions i pronòstics meteorològics de més de 4000 aeroports (METAR i TAF).

Les estacions disponibles són els punts grocs i vermells al mapa.

Posi el ratolí al punt desitjat per veure el nom de l'estació.

Feu clic per veure les observacions i els pronòstics meteorològics.

Per canviar el mapa: feu clic els botons verds amb una creu de color negre per apropar; al botó verd amb un guió per allunyar la imatge; o en les fletxes verdes per a mapes adjacents.


METAR-TAF: